Time;durP1;ratioP1;P1;durP2;ratioP2;P2;SDS_P1;SDS_P2;PMS_P1;PMS_P2;Temp;Humidity;BMP_temperature;BMP_pressure;BME280_temperature;BME280_humidity;BME280_pressure;Samples;Min_cycle;Max_cycle;Signal;HPM_P1;HPM_P2
2023/10/30 00:02:20;;;;;;;6.13;0.80;;;9.80;99.90;;;;;;5022256;28;20017;-68
2023/10/30 00:04:45;;;;;;;7.53;0.70;;;9.80;99.90;;;;;;5018886;28;20497;-68
2023/10/30 00:07:11;;;;;;;6.20;0.88;;;9.80;99.90;;;;;;5025272;28;20390;-69
2023/10/30 00:09:37;;;;;;;6.88;0.60;;;9.70;99.90;;;;;;5018407;28;20025;-68
2023/10/30 00:12:02;;;;;;;5.97;0.55;;;9.80;99.90;;;;;;5032345;28;20558;-68
2023/10/30 00:14:28;;;;;;;10.05;0.82;;;9.80;99.90;;;;;;5024655;28;20022;-68
2023/10/30 00:16:54;;;;;;;13.10;0.93;;;9.80;99.90;;;;;;5012502;28;20026;-68
2023/10/30 00:19:19;;;;;;;8.88;0.60;;;9.80;99.90;;;;;;5010460;28;20105;-68
2023/10/30 00:21:45;;;;;;;9.90;0.73;;;9.80;99.90;;;;;;5023457;28;20037;-69
2023/10/30 00:24:10;;;;;;;4.50;0.57;;;9.80;99.90;;;;;;5023474;28;20029;-68
2023/10/30 00:26:36;;;;;;;13.00;1.45;;;9.80;99.90;;;;;;5027210;28;20037;-68
2023/10/30 00:29:02;;;;;;;9.93;0.90;;;9.80;99.90;;;;;;5024332;28;20045;-69
2023/10/30 00:31:28;;;;;;;4.68;0.43;;;9.90;99.90;;;;;;5014330;28;20498;-68
2023/10/30 00:33:53;;;;;;;10.98;0.70;;;9.90;99.90;;;;;;5024499;28;20014;-68
2023/10/30 00:36:19;;;;;;;7.40;0.50;;;9.90;99.90;;;;;;5031037;28;20060;-69
2023/10/30 00:38:45;;;;;;;4.90;0.60;;;10.00;99.90;;;;;;5023606;28;20105;-68
2023/10/30 00:41:10;;;;;;;11.82;1.25;;;10.00;99.90;;;;;;5012112;28;20117;-68
2023/10/30 00:43:39;;;;;;;5.40;0.50;;;10.00;99.90;;;;;;5028490;28;20033;-69
2023/10/30 00:46:06;;;;;;;8.77;0.80;;;10.00;99.90;;;;;;5012308;28;20045;-68
2023/10/30 00:48:35;;;;;;;8.32;0.50;;;10.10;99.90;;;;;;5016315;28;20021;-68
2023/10/30 00:51:00;;;;;;;8.65;0.93;;;10.20;99.90;;;;;;5017745;28;20104;-68
2023/10/30 00:53:26;;;;;;;4.05;0.60;;;10.10;99.90;;;;;;5009974;28;20379;-68
2023/10/30 00:55:52;;;;;;;9.00;1.50;;;10.20;99.90;;;;;;5010077;28;20030;-68
2023/10/30 00:58:17;;;;;;;7.40;0.77;;;10.20;99.90;;;;;;5010966;28;20056;-68
2023/10/30 01:00:43;;;;;;;6.13;0.50;;;10.20;99.90;;;;;;5017730;28;20038;-68
2023/10/30 01:03:09;;;;;;;10.68;0.85;;;10.30;99.90;;;;;;5013218;28;20033;-68
2023/10/30 01:05:34;;;;;;;11.00;0.60;;;10.20;99.90;;;;;;5015430;28;20060;-68
2023/10/30 01:08:00;;;;;;;8.43;0.80;;;10.20;99.90;;;;;;5024532;28;20018;-68
2023/10/30 01:10:26;;;;;;;8.65;0.60;;;10.20;99.90;;;;;;5024081;28;20478;-69
2023/10/30 01:12:51;;;;;;;5.53;0.93;;;10.30;99.90;;;;;;5009146;28;20070;-68
2023/10/30 01:15:17;;;;;;;8.57;0.80;;;10.20;99.90;;;;;;5022831;28;20037;-69
2023/10/30 01:17:43;;;;;;;9.45;0.50;;;10.30;99.90;;;;;;5010703;28;20067;-69
2023/10/30 01:20:09;;;;;;;10.95;1.20;;;10.30;99.90;;;;;;5030433;28;20083;-68
2023/10/30 01:22:35;;;;;;;7.97;0.85;;;10.30;99.90;;;;;;5016590;28;20033;-68
2023/10/30 01:25:00;;;;;;;7.68;0.43;;;10.30;99.90;;;;;;5007264;28;20032;-68
2023/10/30 01:27:26;;;;;;;10.20;0.82;;;10.40;99.90;;;;;;5028734;28;20049;-68
2023/10/30 01:29:51;;;;;;;11.48;0.90;;;10.40;99.90;;;;;;5030116;28;20061;-68
2023/10/30 01:32:17;;;;;;;9.50;0.73;;;10.40;99.90;;;;;;5013874;28;20034;-68
2023/10/30 01:34:44;;;;;;;14.00;0.98;;;10.40;99.90;;;;;;5017864;28;20022;-68
2023/10/30 01:37:10;;;;;;;9.25;0.80;;;10.50;99.90;;;;;;5016565;28;20117;-68
2023/10/30 01:39:37;;;;;;;10.30;0.95;;;10.50;99.90;;;;;;5026757;28;20104;-68
2023/10/30 01:42:03;;;;;;;8.52;1.60;;;10.50;99.90;;;;;;5011980;28;20034;-69
2023/10/30 01:44:28;;;;;;;11.27;1.00;;;10.50;99.90;;;;;;5010165;28;20026;-68
2023/10/30 01:46:54;;;;;;;10.02;0.70;;;10.60;99.90;;;;;;5008059;28;20469;-68
2023/10/30 01:49:19;;;;;;;8.40;0.80;;;10.60;99.90;;;;;;5020025;28;20034;-68
2023/10/30 01:51:46;;;;;;;5.80;0.57;;;10.60;99.90;;;;;;5018294;28;20065;-68
2023/10/30 01:54:12;;;;;;;9.75;0.57;;;10.60;99.90;;;;;;5013685;28;20060;-69
2023/10/30 01:56:39;;;;;;;8.50;1.23;;;10.60;99.90;;;;;;5012285;28;20446;-68
2023/10/30 01:59:05;;;;;;;7.85;0.82;;;10.70;99.90;;;;;;5015712;28;20091;-69
2023/10/30 02:01:32;;;;;;;7.43;0.63;;;10.70;99.90;;;;;;5012716;28;20046;-68
2023/10/30 02:03:58;;;;;;;8.98;0.60;;;10.70;99.90;;;;;;5010828;28;20113;-68
2023/10/30 02:06:23;;;;;;;9.43;0.70;;;10.70;99.90;;;;;;5019869;28;20105;-69
2023/10/30 02:08:49;;;;;;;6.50;0.57;;;10.70;99.90;;;;;;5021997;28;20108;-69
2023/10/30 02:11:14;;;;;;;10.23;0.80;;;10.70;99.90;;;;;;5009544;28;20560;-68
2023/10/30 02:13:40;;;;;;;7.25;0.50;;;10.70;99.90;;;;;;5017872;28;20026;-68
2023/10/30 02:16:06;;;;;;;4.95;0.52;;;10.80;99.90;;;;;;5014691;28;20033;-69
2023/10/30 02:18:31;;;;;;;11.27;0.82;;;10.70;99.90;;;;;;5016900;28;20079;-68
2023/10/30 02:20:57;;;;;;;8.95;1.17;;;10.80;99.90;;;;;;5030290;28;20021;-68
2023/10/30 02:23:22;;;;;;;10.07;0.80;;;10.70;99.90;;;;;;5016885;28;20042;-68
2023/10/30 02:25:48;;;;;;;5.75;0.52;;;10.70;99.90;;;;;;5013903;28;20504;-68
2023/10/30 02:28:13;;;;;;;7.72;0.70;;;10.80;99.90;;;;;;5014807;28;20026;-69
2023/10/30 02:30:39;;;;;;;9.27;0.70;;;10.70;99.90;;;;;;5020896;28;20041;-68
2023/10/30 02:33:04;;;;;;;5.85;0.63;;;10.70;99.90;;;;;;5020477;28;20030;-68
2023/10/30 02:35:30;;;;;;;10.40;0.55;;;10.80;99.90;;;;;;5020813;28;20486;-68
2023/10/30 02:37:55;;;;;;;9.13;1.10;;;10.70;99.90;;;;;;5008597;28;20026;-68
2023/10/30 02:40:21;;;;;;;6.70;0.77;;;10.70;99.90;;;;;;5007262;28;20092;-68
2023/10/30 02:42:46;;;;;;;3.90;0.50;;;10.70;99.90;;;;;;5020504;28;20507;-69
2023/10/30 02:45:12;;;;;;;8.82;0.50;;;10.80;99.90;;;;;;5019610;28;20115;-70
2023/10/30 02:47:38;;;;;;;8.77;0.50;;;10.70;99.90;;;;;;5020481;28;20045;-68
2023/10/30 02:50:06;;;;;;;6.88;0.63;;;10.70;99.90;;;;;;5019462;28;20497;-68
2023/10/30 02:52:32;;;;;;;10.00;0.75;;;10.70;99.90;;;;;;5029935;28;20029;-69
2023/10/30 02:54:58;;;;;;;9.02;0.60;;;10.70;99.90;;;;;;5020767;28;20051;-68
2023/10/30 02:57:23;;;;;;;7.88;0.70;;;10.70;99.90;;;;;;5025425;28;20026;-68
2023/10/30 02:59:49;;;;;;;4.63;0.50;;;10.70;99.90;;;;;;5007016;28;20038;-69
2023/10/30 03:02:14;;;;;;;6.03;0.52;;;10.70;99.90;;;;;;5010769;28;20477;-69
2023/10/30 03:04:40;;;;;;;9.07;0.60;;;10.70;99.90;;;;;;5012990;28;20022;-69
2023/10/30 03:07:05;;;;;;;5.82;0.50;;;10.70;99.90;;;;;;5008537;28;20030;-69
2023/10/30 03:09:33;;;;;;;14.57;1.73;;;10.70;99.90;;;;;;5007041;28;20088;-69
2023/10/30 03:11:58;;;;;;;8.98;0.52;;;10.70;99.90;;;;;;5014396;28;20034;-69
2023/10/30 03:14:24;;;;;;;4.93;0.50;;;10.70;99.90;;;;;;5017054;28;20021;-69
2023/10/30 03:16:50;;;;;;;5.97;0.45;;;10.70;99.90;;;;;;5023139;28;20041;-69
2023/10/30 03:19:16;;;;;;;7.80;0.50;;;10.70;99.90;;;;;;5008262;28;20029;-69
2023/10/30 03:21:42;;;;;;;12.15;0.77;;;10.70;99.90;;;;;;5011899;28;20037;-69
2023/10/30 03:24:08;;;;;;;7.18;0.70;;;10.70;99.90;;;;;;5013289;28;20026;-69
2023/10/30 03:26:33;;;;;;;10.25;1.30;;;10.60;99.90;;;;;;5013553;28;20083;-69
2023/10/30 03:28:59;;;;;;;7.20;0.65;;;10.60;99.90;;;;;;5011231;28;20156;-69
2023/10/30 03:31:24;;;;;;;5.55;0.40;;;10.60;99.90;;;;;;5011657;28;20132;-69
2023/10/30 03:33:50;;;;;;;11.68;1.13;;;10.50;99.90;;;;;;5019910;28;20030;-69
2023/10/30 03:36:20;;;;;;;4.38;0.40;;;10.50;99.90;;;;;;5015662;28;20022;-69
2023/10/30 03:38:45;;;;;;;10.15;0.73;;;10.40;99.90;;;;;;5010217;28;20486;-69
2023/10/30 03:41:11;;;;;;;8.63;0.50;;;10.40;99.90;;;;;;5012505;28;20034;-69
2023/10/30 03:43:36;;;;;;;10.32;0.75;;;10.40;99.90;;;;;;5022163;28;20038;-69
2023/10/30 03:46:02;;;;;;;7.65;0.68;;;10.30;99.90;;;;;;5021368;28;20045;-69
2023/10/30 03:48:28;;;;;;;5.70;0.40;;;10.30;99.90;;;;;;5015734;28;20385;-69
2023/10/30 03:50:53;;;;;;;3.88;0.57;;;10.30;99.90;;;;;;5010908;28;20087;-69
2023/10/30 03:53:19;;;;;;;3.42;0.50;;;10.20;99.90;;;;;;5011386;28;20041;-69
2023/10/30 03:55:45;;;;;;;7.13;0.73;;;10.20;99.90;;;;;;5012381;28;20053;-69
2023/10/30 03:58:12;;;;;;;9.45;0.40;;;10.10;99.90;;;;;;5012975;28;20101;-69
2023/10/30 04:00:37;;;;;;;6.85;0.60;;;10.10;99.90;;;;;;5020739;28;20034;-69
2023/10/30 04:03:03;;;;;;;6.57;0.63;;;10.10;99.90;;;;;;5023622;28;20044;-69
2023/10/30 04:05:29;;;;;;;7.55;1.00;;;10.00;99.90;;;;;;5010596;28;20029;-69
2023/10/30 04:07:55;;;;;;;8.80;0.60;;;10.10;99.90;;;;;;5009925;28;20121;-69
2023/10/30 04:10:20;;;;;;;5.97;0.50;;;10.10;99.90;;;;;;5002871;28;20459;-69
2023/10/30 04:12:46;;;;;;;5.32;0.70;;;10.00;99.90;;;;;;5012396;28;20080;-69
2023/10/30 04:15:11;;;;;;;6.00;0.70;;;10.00;99.90;;;;;;5011300;28;20093;-69
2023/10/30 04:17:37;;;;;;;9.45;0.57;;;10.00;99.90;;;;;;5018130;28;20035;-69
2023/10/30 04:20:03;;;;;;;12.50;0.85;;;10.00;99.90;;;;;;5009075;28;20025;-69
2023/10/30 04:22:29;;;;;;;4.18;0.60;;;10.00;99.90;;;;;;5014373;28;20041;-69
2023/10/30 04:24:54;;;;;;;4.43;0.40;;;10.00;99.90;;;;;;5015195;28;20034;-69
2023/10/30 04:27:21;;;;;;;7.38;0.60;;;10.00;99.90;;;;;;5019001;28;20038;-69
2023/10/30 04:29:47;;;;;;;7.13;0.55;;;9.90;99.90;;;;;;5008831;28;20671;-69
2023/10/30 04:32:12;;;;;;;9.32;0.60;;;9.90;99.90;;;;;;5001640;28;20049;-69
2023/10/30 04:34:37;;;;;;;5.90;0.68;;;9.90;99.90;;;;;;5011905;28;20080;-69
2023/10/30 04:37:03;;;;;;;8.73;0.68;;;9.90;99.90;;;;;;5014934;28;20025;-69
2023/10/30 04:39:29;;;;;;;11.23;0.80;;;9.90;99.90;;;;;;5017381;28;20033;-69
2023/10/30 04:41:55;;;;;;;10.63;0.55;;;9.90;99.90;;;;;;5016701;28;20045;-69
2023/10/30 04:44:21;;;;;;;6.20;0.45;;;9.80;99.90;;;;;;5010927;28;20038;-69
2023/10/30 04:46:46;;;;;;;10.85;0.47;;;9.80;99.90;;;;;;5014107;28;20069;-69
2023/10/30 04:49:12;;;;;;;8.35;0.88;;;9.80;99.90;;;;;;5011196;28;20498;-69
2023/10/30 04:51:38;;;;;;;9.10;0.82;;;9.90;99.90;;;;;;5008217;28;20046;-69
2023/10/30 04:54:03;;;;;;;4.80;0.60;;;9.90;99.90;;;;;;5010520;28;20030;-69
2023/10/30 04:56:29;;;;;;;8.75;0.68;;;9.90;99.90;;;;;;5012061;28;20025;-69
2023/10/30 04:58:55;;;;;;;9.80;0.93;;;9.90;99.90;;;;;;5030839;28;20044;-69
2023/10/30 05:01:20;;;;;;;20.63;3.50;;;9.90;99.90;;;;;;5014610;28;20040;-69
2023/10/30 05:03:46;;;;;;;7.85;0.50;;;9.90;99.90;;;;;;5013731;28;20030;-69
2023/10/30 05:06:11;;;;;;;5.63;0.50;;;9.90;99.90;;;;;;5017169;28;20029;-69
2023/10/30 05:08:37;;;;;;;12.02;0.80;;;9.90;99.90;;;;;;5009088;28;20560;-69
2023/10/30 05:11:03;;;;;;;9.48;0.90;;;9.90;99.90;;;;;;5011356;28;20432;-69
2023/10/30 05:13:29;;;;;;;6.63;0.55;;;10.00;99.90;;;;;;5008706;28;20506;-69
2023/10/30 05:15:57;;;;;;;12.07;0.70;;;10.00;99.90;;;;;;5008211;28;20036;-69
2023/10/30 05:18:24;;;;;;;11.02;0.68;;;10.00;99.90;;;;;;5019998;28;20056;-69
2023/10/30 05:20:50;;;;;;;5.85;0.60;;;10.00;99.90;;;;;;5014542;28;20505;-69
2023/10/30 05:23:16;;;;;;;5.13;0.50;;;10.00;99.90;;;;;;5010851;28;20513;-69
2023/10/30 05:25:42;;;;;;;8.88;0.63;;;10.00;99.90;;;;;;5011053;28;20064;-69
2023/10/30 05:28:07;;;;;;;7.57;1.13;;;10.00;99.90;;;;;;5016070;28;20025;-69
2023/10/30 05:30:36;;;;;;;8.95;0.75;;;10.00;99.90;;;;;;5011120;28;20022;-68
2023/10/30 05:33:02;;;;;;;5.07;0.45;;;10.00;99.90;;;;;;5006641;28;20026;-68
2023/10/30 05:35:27;;;;;;;12.05;0.80;;;10.00;99.90;;;;;;5002587;28;20025;-69
2023/10/30 05:37:53;;;;;;;8.48;0.57;;;10.00;99.90;;;;;;5010696;28;20026;-69
2023/10/30 05:40:20;;;;;;;8.95;0.60;;;10.00;99.90;;;;;;5007737;28;20437;-68
2023/10/30 05:42:46;;;;;;;10.68;0.77;;;10.10;99.90;;;;;;5009747;28;20076;-68
2023/10/30 05:45:11;;;;;;;7.40;0.80;;;10.00;99.90;;;;;;5008114;28;20030;-69
2023/10/30 05:47:37;;;;;;;9.77;0.50;;;10.00;99.90;;;;;;5009037;28;20030;-68
2023/10/30 05:50:03;;;;;;;18.98;0.98;;;10.00;99.90;;;;;;5007906;28;20026;-69
2023/10/30 05:52:29;;;;;;;8.55;0.50;;;10.00;99.90;;;;;;5007932;28;20132;-68
2023/10/30 05:54:54;;;;;;;8.77;0.70;;;10.00;99.90;;;;;;5013730;28;20393;-68
2023/10/30 05:57:20;;;;;;;7.10;0.68;;;10.00;99.90;;;;;;5005627;28;20033;-68
2023/10/30 05:59:45;;;;;;;5.82;0.88;;;10.00;99.90;;;;;;5006129;28;20026;-69
2023/10/30 06:02:11;;;;;;;9.68;1.20;;;10.00;99.90;;;;;;4999719;28;20041;-69
2023/10/30 06:04:37;;;;;;;3.20;0.38;;;10.00;99.90;;;;;;5024235;28;20065;-69
2023/10/30 06:07:03;;;;;;;8.77;0.60;;;10.00;99.90;;;;;;5027008;28;20017;-69
2023/10/30 06:09:28;;;;;;;6.28;0.45;;;10.00;99.90;;;;;;5009806;28;20483;-68
2023/10/30 06:11:54;;;;;;;7.45;0.55;;;10.00;99.90;;;;;;5013654;28;20034;-68
2023/10/30 06:14:19;;;;;;;9.48;0.80;;;10.00;99.90;;;;;;5009324;28;20018;-68
2023/10/30 06:16:45;;;;;;;5.78;0.60;;;10.00;99.90;;;;;;5007263;28;20052;-68
2023/10/30 06:19:11;;;;;;;9.77;0.68;;;9.90;99.90;;;;;;4999973;28;20129;-69
2023/10/30 06:21:40;;;;;;;5.75;0.40;;;9.90;99.90;;;;;;5019604;28;20069;-70
2023/10/30 06:24:09;;;;;;;9.20;0.57;;;9.90;99.90;;;;;;5008217;28;20032;-70
2023/10/30 06:26:38;;;;;;;10.73;0.90;;;9.90;99.90;;;;;;5010585;28;20029;-70
2023/10/30 06:29:03;;;;;;;10.02;0.52;;;9.80;99.90;;;;;;5010934;28;20057;-70
2023/10/30 06:31:29;;;;;;;6.55;1.00;;;9.90;99.90;;;;;;5008706;28;20045;-70
2023/10/30 06:33:55;;;;;;;8.20;2.25;;;9.90;99.90;;;;;;5018686;28;20447;-70
2023/10/30 06:36:21;;;;;;;5.97;0.65;;;9.80;99.90;;;;;;5013892;28;20032;-69
2023/10/30 06:38:47;;;;;;;5.43;0.63;;;9.80;99.90;;;;;;5012469;28;20494;-70
2023/10/30 06:41:13;;;;;;;5.30;0.45;;;9.80;99.90;;;;;;5013227;28;20026;-70
2023/10/30 06:43:39;;;;;;;10.90;0.80;;;9.80;99.90;;;;;;5011952;28;20022;-70
2023/10/30 06:46:05;;;;;;;7.93;0.60;;;9.90;99.90;;;;;;5014667;28;20093;-70
2023/10/30 06:48:31;;;;;;;9.73;0.88;;;9.80;99.90;;;;;;5016864;28;20041;-69
2023/10/30 06:50:57;;;;;;;8.55;0.60;;;9.90;99.90;;;;;;5006829;28;20108;-67
2023/10/30 06:53:23;;;;;;;10.07;0.60;;;9.80;99.90;;;;;;5014274;28;20545;-68
2023/10/30 06:55:50;;;;;;;10.10;1.02;;;9.90;99.90;;;;;;5012344;28;20092;-69
2023/10/30 06:58:16;;;;;;;10.13;0.45;;;9.90;99.90;;;;;;5014224;28;20114;-68
2023/10/30 07:00:42;;;;;;;5.97;0.50;;;9.90;99.90;;;;;;5023386;28;20163;-70
2023/10/30 07:03:08;;;;;;;10.60;0.80;;;9.90;99.90;;;;;;5013531;28;20112;-69
2023/10/30 07:05:33;;;;;;;12.40;0.80;;;9.90;99.90;;;;;;5006619;28;20121;-70
2023/10/30 07:07:59;;;;;;;11.40;0.73;;;9.90;99.90;;;;;;5017767;28;20104;-70
2023/10/30 07:10:24;;;;;;;6.70;0.60;;;9.90;99.90;;;;;;5010106;28;20034;-70
2023/10/30 07:12:57;;;;;;;10.00;0.73;;;9.90;99.90;;;;;;5008211;28;20113;-71
2023/10/30 07:15:34;;;;;;;12.20;0.93;;;10.00;99.90;;;;;;4999464;28;20014;-70
2023/10/30 07:18:13;;;;;;;7.30;0.60;;;10.00;99.90;;;;;;5004795;28;20058;-70
2023/10/30 07:20:44;;;;;;;6.65;0.68;;;10.10;99.90;;;;;;5010650;28;20048;-70
2023/10/30 07:23:28;;;;;;;5.72;0.63;;;10.10;99.90;;;;;;5007336;28;20105;-70
2023/10/30 07:26:00;;;;;;;7.18;0.50;;;10.20;99.90;;;;;;5013747;28;20018;-70
2023/10/30 07:28:35;;;;;;;5.20;0.75;;;10.20;99.90;;;;;;5024662;28;20034;-69
2023/10/30 07:31:01;;;;;;;8.38;0.80;;;10.30;99.90;;;;;;5018147;28;20367;-69
2023/10/30 07:33:26;;;;;;;4.57;0.57;;;10.30;99.90;;;;;;5021870;28;20088;-68
2023/10/30 07:35:53;;;;;;;11.40;1.00;;;10.40;99.90;;;;;;5016164;28;20033;-68
2023/10/30 07:38:19;;;;;;;13.52;2.17;;;10.40;99.90;;;;;;5012427;28;20494;-68
2023/10/30 07:40:44;;;;;;;6.03;0.70;;;10.50;99.90;;;;;;4997191;28;20030;-68
2023/10/30 07:43:10;;;;;;;7.65;0.70;;;10.60;99.90;;;;;;5003467;28;20045;-69
2023/10/30 07:45:42;;;;;;;7.15;0.90;;;10.60;99.90;;;;;;5002805;28;20049;-68
2023/10/30 07:48:07;;;;;;;6.53;0.90;;;10.60;99.90;;;;;;5004658;28;20398;-68
2023/10/30 07:50:35;;;;;;;8.00;1.17;;;10.60;99.90;;;;;;5007843;28;20095;-68
2023/10/30 07:53:01;;;;;;;6.68;0.95;;;10.60;99.90;;;;;;5003216;28;20041;-68
2023/10/30 07:55:30;;;;;;;12.07;0.82;;;10.70;99.90;;;;;;4999003;28;20033;-68
2023/10/30 07:57:59;;;;;;;11.75;1.40;;;10.70;99.90;;;;;;5006532;28;20076;-70
2023/10/30 08:00:24;;;;;;;11.95;1.30;;;10.70;99.90;;;;;;5001332;28;20160;-68
2023/10/30 08:02:50;;;;;;;5.97;1.20;;;10.80;99.90;;;;;;5004370;28;20109;-69
2023/10/30 08:05:16;;;;;;;8.02;1.33;;;10.80;99.90;;;;;;4998728;28;20119;-69
2023/10/30 08:07:44;;;;;;;9.40;1.10;;;10.90;99.90;;;;;;4999380;28;20104;-68
2023/10/30 08:10:11;;;;;;;8.60;1.08;;;11.00;99.90;;;;;;5001641;28;20108;-68
2023/10/30 08:12:40;;;;;;;10.48;1.92;;;11.00;99.90;;;;;;4994317;28;20143;-69
2023/10/30 08:15:07;;;;;;;6.43;1.73;;;11.10;99.90;;;;;;5004637;28;20022;-68
2023/10/30 08:17:33;;;;;;;6.00;1.48;;;11.20;99.90;;;;;;5011906;28;20518;-68
2023/10/30 08:19:59;;;;;;;9.18;1.40;;;11.30;99.90;;;;;;5015385;28;20038;-68
2023/10/30 08:22:24;;;;;;;9.45;1.42;;;11.40;99.90;;;;;;5002346;28;20553;-70
2023/10/30 08:24:51;;;;;;;10.77;1.75;;;11.50;99.90;;;;;;5003589;28;20029;-70
2023/10/30 08:27:17;;;;;;;11.18;1.40;;;11.60;99.90;;;;;;5002842;28;20034;-71
2023/10/30 08:29:43;;;;;;;13.07;1.75;;;11.70;99.90;;;;;;5001981;28;20037;-71
2023/10/30 08:32:08;;;;;;;13.65;1.65;;;11.80;99.90;;;;;;5002195;28;20040;-69
2023/10/30 08:34:34;;;;;;;8.48;1.35;;;12.00;99.90;;;;;;5005360;28;20026;-70
2023/10/30 08:36:59;;;;;;;11.65;1.88;;;12.00;99.90;;;;;;4999868;28;20026;-69
2023/10/30 08:39:25;;;;;;;10.82;1.58;;;12.20;99.90;;;;;;5010305;28;20432;-72
2023/10/30 08:41:51;;;;;;;7.13;1.30;;;12.30;99.90;;;;;;4999724;28;20034;-71
2023/10/30 08:44:16;;;;;;;11.23;1.30;;;12.30;99.90;;;;;;4995075;28;20036;-71
2023/10/30 08:46:42;;;;;;;6.28;1.30;;;12.20;99.90;;;;;;5000633;28;20054;-70
2023/10/30 08:49:08;;;;;;;14.30;1.48;;;12.20;99.90;;;;;;5010452;28;20072;-71
2023/10/30 08:51:40;;;;;;;14.27;1.23;;;12.20;99.90;;;;;;5000644;28;20116;-72
2023/10/30 08:54:06;;;;;;;;;;;12.20;99.90;;;;;;5005656;28;20596;-71
2023/10/30 08:56:31;;;;;;;7.93;1.10;;;12.20;99.90;;;;;;5005013;28;19916;-71
2023/10/30 08:58:57;;;;;;;11.20;1.25;;;12.20;99.90;;;;;;5002362;28;20105;-71
2023/10/30 09:01:22;;;;;;;9.52;1.13;;;12.20;99.90;;;;;;5015836;28;20037;-78
2023/10/30 09:03:48;;;;;;;12.27;1.55;;;12.20;99.90;;;;;;5008669;28;20032;-73
2023/10/30 09:06:14;;;;;;;12.32;1.50;;;12.30;99.90;;;;;;5001540;28;20029;-71
2023/10/30 09:08:39;;;;;;;18.27;3.05;;;12.30;99.90;;;;;;5003040;28;20512;-72
2023/10/30 09:11:05;;;;;;;10.35;1.35;;;12.30;99.90;;;;;;5004029;28;20056;-70
2023/10/30 09:13:31;;;;;;;9.57;0.90;;;12.30;99.90;;;;;;5006590;28;20092;-70
2023/10/30 09:15:56;;;;;;;9.60;1.10;;;12.40;99.90;;;;;;5002774;28;20042;-68
2023/10/30 09:18:22;;;;;;;9.23;1.25;;;12.40;99.90;;;;;;5012989;28;20490;-69
2023/10/30 09:20:48;;;;;;;7.13;1.10;;;12.50;99.90;;;;;;5003340;28;20037;-70
2023/10/30 09:23:13;;;;;;;7.07;1.20;;;12.50;99.90;;;;;;5004886;28;20022;-70
2023/10/30 09:25:39;;;;;;;10.02;1.33;;;12.60;99.90;;;;;;5010110;28;20038;-70
2023/10/30 09:28:04;;;;;;;6.63;1.30;;;12.70;99.90;;;;;;5008723;28;20028;-70
2023/10/30 09:30:30;;;;;;;12.35;1.27;;;12.80;99.90;;;;;;5009614;28;20034;-70
2023/10/30 09:32:59;;;;;;;8.50;1.80;;;12.90;99.90;;;;;;5008836;28;20050;-70
2023/10/30 09:35:31;;;;;;;9.70;1.20;;;12.90;99.90;;;;;;5004207;28;20482;-70
2023/10/30 09:37:58;;;;;;;7.57;1.92;;;12.90;99.90;;;;;;5013164;28;20034;-70
2023/10/30 09:40:26;;;;;;;9.95;1.00;;;13.00;99.90;;;;;;5008229;28;20472;-70
2023/10/30 09:42:53;;;;;;;5.60;0.90;;;13.00;99.90;;;;;;5010514;28;20033;-70
2023/10/30 09:45:23;;;;;;;4.30;0.80;;;13.10;99.90;;;;;;5022104;28;20026;-70
2023/10/30 09:47:57;;;;;;;8.27;1.55;;;13.20;99.90;;;;;;5007293;28;20034;-70
2023/10/30 09:50:25;;;;;;;9.45;0.88;;;13.20;99.90;;;;;;5006351;28;20497;-70
2023/10/30 09:52:55;;;;;;;12.40;2.40;;;13.30;99.90;;;;;;5001963;28;20542;-68
2023/10/30 09:55:22;;;;;;;4.63;0.77;;;13.30;99.90;;;;;;5009559;28;20031;-69
2023/10/30 09:57:49;;;;;;;7.60;0.70;;;13.30;99.90;;;;;;5008014;28;20559;-69
2023/10/30 10:00:16;;;;;;;9.55;1.40;;;13.30;99.90;;;;;;5008509;28;20065;-70
2023/10/30 10:02:43;;;;;;;10.40;1.40;;;13.40;99.90;;;;;;5007742;28;20460;-69
2023/10/30 10:05:12;;;;;;;6.82;0.95;;;13.40;99.90;;;;;;5002447;28;20018;-69
2023/10/30 10:07:39;;;;;;;10.13;0.88;;;13.50;99.90;;;;;;5007344;28;20380;-69
2023/10/30 10:10:07;;;;;;;6.05;0.77;;;13.50;99.90;;;;;;5020249;28;20072;-69
2023/10/30 10:12:33;;;;;;;8.55;0.93;;;13.60;99.90;;;;;;5011787;28;20081;-69
2023/10/30 10:14:59;;;;;;;4.97;0.60;;;13.70;99.90;;;;;;5011841;28;20057;-69
2023/10/30 10:17:25;;;;;;;8.88;0.95;;;13.60;99.90;;;;;;5013969;28;20151;-69
2023/10/30 10:19:51;;;;;;;6.28;0.82;;;13.70;99.90;;;;;;5008234;28;20056;-69
2023/10/30 10:22:29;;;;;;;11.40;0.90;;;13.70;99.90;;;;;;5002442;28;20360;-69
2023/10/30 10:24:56;;;;;;;9.95;1.00;;;13.70;99.90;;;;;;5008721;28;20097;-70
2023/10/30 10:27:23;;;;;;;9.82;1.00;;;13.70;99.90;;;;;;4995312;28;20041;-69
2023/10/30 10:29:54;;;;;;;4.70;1.33;;;13.70;99.90;;;;;;5005599;28;20038;-68
2023/10/30 10:32:27;;;;;;;8.93;0.77;;;13.70;99.90;;;;;;5004668;28;20029;-70
2023/10/30 10:34:54;;;;;;;;;;;13.70;99.90;;;;;;5003763;28;20524;-69
2023/10/30 10:37:20;;;;;;;11.85;0.70;;;13.70;99.90;;;;;;5007376;28;19915;-70
2023/10/30 10:39:50;;;;;;;4.78;0.80;;;13.70;99.90;;;;;;5010671;28;20121;-69
2023/10/30 10:42:18;;;;;;;7.47;0.70;;;13.70;99.90;;;;;;5005879;28;20026;-68
2023/10/30 10:44:45;;;;;;;7.63;0.80;;;13.70;99.90;;;;;;5006142;28;20026;-68
2023/10/30 10:47:11;;;;;;;5.55;1.02;;;13.70;99.90;;;;;;5010279;28;20508;-68
2023/10/30 10:49:37;;;;;;;8.30;1.00;;;13.70;99.90;;;;;;5003943;28;20033;-70
2023/10/30 10:52:08;;;;;;;5.10;0.80;;;13.80;99.90;;;;;;5013317;28;20039;-69
2023/10/30 10:54:43;;;;;;;7.05;0.80;;;13.90;99.90;;;;;;5004966;28;20750;-69
2023/10/30 10:57:11;;;;;;;7.15;0.80;;;13.90;99.90;;;;;;5003042;28;20042;-68
2023/10/30 10:59:39;;;;;;;6.57;1.23;;;13.90;99.90;;;;;;5002019;28;20389;-68
2023/10/30 11:02:12;;;;;;;9.40;0.60;;;14.00;99.90;;;;;;5007253;28;20025;-70
2023/10/30 11:04:38;;;;;;;6.60;0.60;;;14.00;99.90;;;;;;5005595;28;20037;-68
2023/10/30 11:07:09;;;;;;;4.78;0.80;;;14.00;99.90;;;;;;5006311;28;20026;-68
2023/10/30 11:10:03;;;;;;;7.90;0.52;;;14.10;99.90;;;;;;5004902;28;21086;-68
2023/10/30 11:13:00;;;;;;;8.98;0.68;;;14.20;99.90;;;;;;5000118;28;20046;-68
2023/10/30 11:15:34;;;;;;;8.13;0.77;;;14.30;99.90;;;;;;5009695;28;20055;-68
2023/10/30 11:18:21;;;;;;;5.03;0.60;;;14.50;99.90;;;;;;5007746;28;20027;-68
2023/10/30 11:20:53;;;;;;;8.02;1.05;;;14.50;99.90;;;;;;5012053;28;20038;-68
2023/10/30 11:23:57;;;;;;;7.78;0.60;;;14.60;99.90;;;;;;5018701;28;20071;-68
2023/10/30 11:26:38;;;;;;;7.28;0.57;;;14.60;99.90;;;;;;5008611;28;20126;-68
2023/10/30 11:29:10;;;;;;;5.10;0.70;;;14.60;99.90;;;;;;5010118;28;20025;-68
2023/10/30 11:32:00;;;;;;;7.55;0.75;;;14.60;99.90;;;;;;5027591;28;20397;-68
2023/10/30 11:34:38;;;;;;;6.72;1.02;;;14.50;99.90;;;;;;5001023;28;20163;-68
2023/10/30 11:37:09;;;;;;;5.45;0.50;;;14.50;99.90;;;;;;5007924;28;20113;-68
2023/10/30 11:39:37;;;;;;;10.20;0.50;;;14.50;99.90;;;;;;5006162;28;20467;-68
2023/10/30 11:42:04;;;;;;;9.85;0.80;;;14.50;99.90;;;;;;4999956;28;20034;-68
2023/10/30 11:44:38;;;;;;;5.20;0.52;;;14.50;99.90;;;;;;5003744;28;20034;-69
2023/10/30 11:47:07;;;;;;;5.30;0.88;;;14.50;99.90;;;;;;5001924;28;20034;-69
2023/10/30 11:49:33;;;;;;;5.32;0.65;;;14.50;99.90;;;;;;5001972;28;20041;-69
2023/10/30 11:51:59;;;;;;;4.72;1.10;;;14.40;99.90;;;;;;5001632;28;20045;-69
2023/10/30 11:54:32;;;;;;;4.80;0.50;;;14.40;99.90;;;;;;5002833;28;20044;-69
2023/10/30 11:57:00;;;;;;;5.13;0.40;;;14.30;99.90;;;;;;4997338;28;20033;-68
2023/10/30 11:59:26;;;;;;;6.38;0.70;;;14.30;99.90;;;;;;5005493;28;20506;-69
2023/10/30 12:01:53;;;;;;;3.95;0.40;;;14.30;99.90;;;;;;5000493;28;20038;-69
2023/10/30 12:04:23;;;;;;;5.32;0.70;;;14.30;99.90;;;;;;5003142;28;20026;-68
2023/10/30 12:06:49;;;;;;;5.60;0.50;;;14.30;99.90;;;;;;5004756;28;20073;-69
2023/10/30 12:09:18;;;;;;;5.55;0.57;;;14.30;99.90;;;;;;5005160;28;20033;-69
2023/10/30 12:11:44;;;;;;;6.72;0.60;;;14.30;99.90;;;;;;5001911;28;20120;-69
2023/10/30 12:14:13;;;;;;;4.13;0.50;;;14.40;99.90;;;;;;5007863;28;20100;-68
2023/10/30 12:16:48;;;;;;;3.10;0.50;;;14.40;99.90;;;;;;5005518;28;20036;-68
2023/10/30 12:19:15;;;;;;;4.40;0.50;;;14.40;99.90;;;;;;5005434;28;20019;-68
2023/10/30 12:21:44;;;;;;;4.78;0.40;;;14.40;99.90;;;;;;4995294;28;20084;-69
2023/10/30 12:24:09;;;;;;;4.18;0.50;;;14.40;99.90;;;;;;5003960;28;20032;-69
2023/10/30 12:26:40;;;;;;;5.57;0.40;;;14.50;99.90;;;;;;5007605;28;20037;-69
2023/10/30 12:29:05;;;;;;;4.20;0.35;;;14.40;99.90;;;;;;5007054;28;20033;-69
2023/10/30 12:31:31;;;;;;;7.75;0.50;;;14.50;99.90;;;;;;5008674;28;20052;-69
2023/10/30 12:34:07;;;;;;;4.75;0.38;;;14.40;99.90;;;;;;5009146;28;20022;-69
2023/10/30 12:36:33;;;;;;;3.80;0.40;;;14.50;99.90;;;;;;5014833;28;20033;-69
2023/10/30 12:39:20;;;;;;;5.32;0.60;;;14.40;99.90;;;;;;4999443;28;20254;-69
2023/10/30 12:41:51;;;;;;;2.90;0.30;;;14.40;99.90;;;;;;5006714;28;20109;-69
2023/10/30 12:44:19;;;;;;;3.03;0.35;;;14.40;99.90;;;;;;5009805;28;20026;-69
2023/10/30 12:46:45;;;;;;;4.97;0.50;;;14.50;99.90;;;;;;5008797;28;20103;-69